createdAt,value
2022-12-23T00:01:28.069Z,11.40
2022-12-23T00:04:00.117Z,11.50
2022-12-23T00:06:28.925Z,11.50
2022-12-23T00:08:59.341Z,11.50
2022-12-23T00:11:29.031Z,11.60
2022-12-23T00:14:21.010Z,11.60
2022-12-23T00:16:51.576Z,11.60
2022-12-23T00:19:21.401Z,11.70
2022-12-23T00:21:49.729Z,11.70
2022-12-23T00:24:18.199Z,11.80
2022-12-23T00:26:46.534Z,11.80
2022-12-23T00:29:14.842Z,11.90
2022-12-23T00:31:43.217Z,11.90
2022-12-23T00:34:13.114Z,12.00
2022-12-23T00:36:42.683Z,12.00
2022-12-23T00:39:31.371Z,12.00
2022-12-23T00:42:17.039Z,12.10
2022-12-23T00:44:45.572Z,12.10
2022-12-23T00:47:35.072Z,12.10
2022-12-23T00:50:02.313Z,12.10
2022-12-23T00:52:32.729Z,12.20
2022-12-23T00:55:01.142Z,12.30
2022-12-23T00:57:29.355Z,12.20
2022-12-23T00:59:57.552Z,12.30
2022-12-23T01:02:46.169Z,12.30
2022-12-23T01:05:31.870Z,12.30
2022-12-23T01:08:01.792Z,12.30
2022-12-23T01:10:30.099Z,12.40
2022-12-23T01:12:58.366Z,12.50
2022-12-23T01:15:26.655Z,12.50
2022-12-23T01:17:55.360Z,12.50
2022-12-23T01:20:24.036Z,12.40
2022-12-23T01:22:52.452Z,12.30
2022-12-23T01:25:22.125Z,12.30
2022-12-23T01:27:50.383Z,12.20
2022-12-23T01:30:18.659Z,12.20
2022-12-23T01:32:47.162Z,12.20
2022-12-23T01:35:15.715Z,12.20
2022-12-23T01:37:43.929Z,12.10
2022-12-23T01:40:12.822Z,12.10
2022-12-23T01:42:44.250Z,12.10
2022-12-23T01:45:18.977Z,12.10
2022-12-23T01:47:51.460Z,12.10
2022-12-23T01:50:24.699Z,12.20
2022-12-23T01:53:06.835Z,12.20
2022-12-23T01:55:42.956Z,12.20
2022-12-23T01:58:16.498Z,12.30
2022-12-23T02:01:02.460Z,12.30
2022-12-23T02:03:43.360Z,12.40
2022-12-23T02:06:33.317Z,12.40
2022-12-23T02:09:18.115Z,12.40
2022-12-23T02:12:07.649Z,12.50
2022-12-23T02:15:09.895Z,12.50
2022-12-23T02:17:45.901Z,12.40
2022-12-23T02:20:49.623Z,12.50
2022-12-23T02:23:43.673Z,12.50
2022-12-23T02:26:36.407Z,12.50
2022-12-23T02:29:27.239Z,12.60
2022-12-23T02:32:01.892Z,12.60
2022-12-23T02:34:39.019Z,12.60
2022-12-23T02:37:11.628Z,12.70
2022-12-23T02:39:47.051Z,12.60
2022-12-23T02:42:18.299Z,12.60
2022-12-23T02:44:53.765Z,12.60
2022-12-23T02:47:26.936Z,12.60
2022-12-23T02:49:59.030Z,12.60
2022-12-23T02:52:32.683Z,12.60
2022-12-23T02:55:04.238Z,12.60
2022-12-23T02:57:36.940Z,12.60
2022-12-23T03:00:07.396Z,12.60
2022-12-23T03:02:40.113Z,12.60
2022-12-23T03:05:26.223Z,12.60
2022-12-23T03:07:59.543Z,12.60
2022-12-23T03:10:37.282Z,12.60
2022-12-23T03:13:15.445Z,12.50
2022-12-23T03:15:52.542Z,12.60
2022-12-23T03:18:29.446Z,12.60
2022-12-23T03:21:05.679Z,12.60
2022-12-23T03:23:39.285Z,12.60
2022-12-23T03:26:13.655Z,12.60
2022-12-23T03:28:48.461Z,12.60
2022-12-23T03:31:24.485Z,12.60
2022-12-23T03:33:58.373Z,12.60
2022-12-23T03:36:30.319Z,12.70
2022-12-23T03:38:59.404Z,12.60
2022-12-23T03:41:32.309Z,12.60
2022-12-23T03:44:05.123Z,12.60
2022-12-23T03:46:39.388Z,12.60
2022-12-23T03:49:12.953Z,12.60
2022-12-23T03:51:48.549Z,12.60
2022-12-23T03:54:20.175Z,12.60
2022-12-23T03:56:55.901Z,12.60
2022-12-23T03:59:27.427Z,12.50
2022-12-23T04:02:04.244Z,12.60
2022-12-23T04:04:43.378Z,12.60
2022-12-23T04:07:16.649Z,12.50
2022-12-23T04:09:45.632Z,12.50
2022-12-23T04:12:15.622Z,12.50
2022-12-23T04:14:48.421Z,12.50
2022-12-23T04:17:17.455Z,12.40
2022-12-23T04:19:48.147Z,12.50
2022-12-23T04:22:17.708Z,12.50
2022-12-23T04:24:45.958Z,12.50
2022-12-23T04:27:15.522Z,12.40
2022-12-23T04:29:43.939Z,12.40
2022-12-23T04:32:12.407Z,12.40
2022-12-23T04:34:40.993Z,12.40
2022-12-23T04:37:11.698Z,12.40
2022-12-23T04:39:39.939Z,12.30
2022-12-23T04:42:08.192Z,12.40
2022-12-23T04:44:36.506Z,12.30
2022-12-23T04:47:04.875Z,12.30
2022-12-23T04:49:33.560Z,12.30
2022-12-23T04:52:01.776Z,12.40
2022-12-23T04:54:31.469Z,12.40
2022-12-23T04:57:00.053Z,12.40
2022-12-23T04:59:28.653Z,12.40
2022-12-23T05:01:57.261Z,12.40
2022-12-23T05:04:25.734Z,12.40
2022-12-23T05:06:54.012Z,12.50
2022-12-23T05:09:22.295Z,12.50
2022-12-23T05:11:52.028Z,12.50
2022-12-23T05:14:20.295Z,12.50
2022-12-23T05:16:48.700Z,12.50
2022-12-23T05:19:17.159Z,12.50
2022-12-23T05:21:45.405Z,12.50
2022-12-23T05:24:13.700Z,12.50
2022-12-23T05:26:46.157Z,12.50
2022-12-23T05:29:17.630Z,12.40
2022-12-23T05:31:46.059Z,12.40
2022-12-23T05:34:14.307Z,12.40
2022-12-23T05:36:42.556Z,12.40
2022-12-23T05:39:10.948Z,12.40
2022-12-23T05:41:39.174Z,12.40
2022-12-23T05:44:07.759Z,12.50
2022-12-23T05:46:40.138Z,12.50
2022-12-23T05:49:08.836Z,12.50
2022-12-23T05:51:37.056Z,12.40
2022-12-23T05:54:05.429Z,12.40
2022-12-23T05:56:33.680Z,12.40
2022-12-23T05:59:02.121Z,12.40
2022-12-23T06:01:30.415Z,12.40
2022-12-23T06:04:00.244Z,12.40
2022-12-23T06:06:28.809Z,12.40
2022-12-23T06:08:59.866Z,12.40
2022-12-23T06:11:28.775Z,12.40
2022-12-23T06:13:57.157Z,12.30
2022-12-23T06:16:25.654Z,12.30
2022-12-23T06:18:56.283Z,12.30
2022-12-23T06:21:26.676Z,12.30
2022-12-23T06:23:55.119Z,12.30
2022-12-23T06:26:23.362Z,12.30
2022-12-23T06:28:51.670Z,12.20
2022-12-23T06:31:20.153Z,12.20
2022-12-23T06:33:48.916Z,12.20
2022-12-23T06:36:17.293Z,12.20
2022-12-23T06:38:46.947Z,12.20
2022-12-23T06:41:15.425Z,12.20
2022-12-23T06:43:43.677Z,12.20
2022-12-23T06:46:12.384Z,12.30
2022-12-23T06:48:40.735Z,12.30
2022-12-23T06:51:11.133Z,12.30
2022-12-23T06:53:39.381Z,12.30
2022-12-23T06:56:09.131Z,12.30
2022-12-23T06:58:37.374Z,12.30
2022-12-23T07:01:06.411Z,12.30
2022-12-23T07:03:34.674Z,12.30
2022-12-23T07:06:03.189Z,12.30
2022-12-23T07:08:31.545Z,12.30
2022-12-23T07:11:00.471Z,12.30
2022-12-23T07:13:30.645Z,12.30
2022-12-23T07:15:59.671Z,12.30
2022-12-23T07:18:27.922Z,12.30
2022-12-23T07:21:01.383Z,12.40
2022-12-23T07:23:29.888Z,12.40
2022-12-23T07:25:58.244Z,12.30
2022-12-23T07:28:26.887Z,12.40
2022-12-23T07:30:56.509Z,12.40
2022-12-23T07:33:24.763Z,12.40
2022-12-23T07:35:52.961Z,12.40
2022-12-23T07:38:21.159Z,12.40
2022-12-23T07:40:50.135Z,12.40
2022-12-23T07:43:18.567Z,12.50
2022-12-23T07:45:46.947Z,12.50
2022-12-23T07:48:17.343Z,12.50
2022-12-23T07:50:45.529Z,12.50
2022-12-23T07:53:13.802Z,12.50
2022-12-23T07:55:42.053Z,12.60
2022-12-23T07:58:10.424Z,12.60
2022-12-23T08:00:38.647Z,12.60
2022-12-23T08:03:06.993Z,12.60
2022-12-23T08:05:36.618Z,12.60
2022-12-23T08:08:05.321Z,12.60
2022-12-23T08:10:33.823Z,12.60
2022-12-23T08:13:02.264Z,12.60
2022-12-23T08:15:30.644Z,12.60
2022-12-23T08:17:59.233Z,12.60
2022-12-23T08:20:27.517Z,12.70
2022-12-23T08:22:57.953Z,12.70
2022-12-23T08:25:26.181Z,12.70
2022-12-23T08:27:54.484Z,12.70
2022-12-23T08:30:22.707Z,12.70
2022-12-23T08:32:51.166Z,12.70
2022-12-23T08:35:19.423Z,12.70
2022-12-23T08:37:47.751Z,12.70
2022-12-23T08:40:17.578Z,12.70
2022-12-23T08:42:45.848Z,12.80
2022-12-23T08:45:14.312Z,12.80
2022-12-23T08:47:42.708Z,12.80
2022-12-23T08:50:12.223Z,12.80
2022-12-23T08:52:40.706Z,12.80
2022-12-23T08:55:09.980Z,12.80
2022-12-23T08:57:39.619Z,12.90
2022-12-23T09:00:09.278Z,12.90
2022-12-23T09:02:37.872Z,12.90
2022-12-23T09:05:06.523Z,13.00
2022-12-23T09:07:35.105Z,13.00
2022-12-23T09:10:03.371Z,13.00
2022-12-23T09:12:31.854Z,13.00
2022-12-23T09:15:01.567Z,13.10
2022-12-23T09:17:32.038Z,13.10
2022-12-23T09:20:00.414Z,13.10
2022-12-23T09:22:28.627Z,13.10
2022-12-23T09:25:01.379Z,13.10
2022-12-23T09:27:33.189Z,13.20
2022-12-23T09:30:02.909Z,13.20
2022-12-23T09:32:31.341Z,13.20
2022-12-23T09:34:59.726Z,13.20
2022-12-23T09:37:27.996Z,13.20
2022-12-23T09:39:56.492Z,13.20
2022-12-23T09:42:44.050Z,13.10
2022-12-23T09:45:25.678Z,13.20
2022-12-23T09:47:56.609Z,13.10
2022-12-23T09:50:28.847Z,13.10
2022-12-23T09:53:02.290Z,13.00
2022-12-23T09:55:39.045Z,13.00
2022-12-23T09:58:17.658Z,13.00
2022-12-23T10:01:03.979Z,12.90
2022-12-23T10:03:40.294Z,12.90
2022-12-23T10:06:16.543Z,12.90
2022-12-23T10:08:48.145Z,12.90
2022-12-23T10:11:19.946Z,12.90
2022-12-23T10:13:50.954Z,12.90
2022-12-23T10:16:23.980Z,12.90
2022-12-23T10:19:00.139Z,13.00
2022-12-23T10:21:33.502Z,13.00
2022-12-23T10:24:08.360Z,13.00
2022-12-23T10:26:47.110Z,13.10
2022-12-23T10:29:19.559Z,13.10
2022-12-23T10:32:02.366Z,13.20
2022-12-23T10:34:40.160Z,13.20
2022-12-23T10:37:14.199Z,13.20
2022-12-23T10:39:51.246Z,13.20
2022-12-23T10:42:28.746Z,13.20
2022-12-23T10:45:10.117Z,13.20
2022-12-23T10:47:50.191Z,13.20
2022-12-23T10:50:37.227Z,13.20
2022-12-23T10:53:11.286Z,13.20
2022-12-23T10:55:40.932Z,13.20
2022-12-23T10:58:14.588Z,13.30
2022-12-23T11:00:47.293Z,13.30
2022-12-23T11:03:23.286Z,13.30
2022-12-23T11:05:53.761Z,13.40
2022-12-23T11:08:24.201Z,13.30
2022-12-23T11:10:52.805Z,13.40
2022-12-23T11:13:26.676Z,13.40
2022-12-23T11:15:56.317Z,13.40
2022-12-23T11:18:25.874Z,13.40
2022-12-23T11:21:05.485Z,13.40
2022-12-23T11:23:37.053Z,13.40
2022-12-23T11:26:08.108Z,13.50
2022-12-23T11:28:40.267Z,13.50
2022-12-23T11:31:12.270Z,13.50
2022-12-23T11:33:47.719Z,13.50
2022-12-23T11:36:23.879Z,13.50
2022-12-23T11:38:54.654Z,13.50
2022-12-23T11:41:24.639Z,13.40
2022-12-23T11:43:57.140Z,13.40
2022-12-23T11:46:28.286Z,13.40
2022-12-23T11:49:08.442Z,13.40
2022-12-23T11:51:36.725Z,13.30
2022-12-23T11:54:05.451Z,13.30
2022-12-23T11:56:39.761Z,13.30
2022-12-23T11:59:19.627Z,13.40
2022-12-23T12:01:49.925Z,13.30
2022-12-23T12:04:23.234Z,13.40
2022-12-23T12:06:56.332Z,13.30
2022-12-23T12:09:25.847Z,13.30
2022-12-23T12:11:58.376Z,13.30
2022-12-23T12:14:33.456Z,13.30
2022-12-23T12:17:15.328Z,13.30
2022-12-23T12:19:54.753Z,13.30
2022-12-23T12:22:31.659Z,13.30
2022-12-23T12:25:07.413Z,13.40
2022-12-23T12:27:39.925Z,13.40
2022-12-23T12:30:13.647Z,13.40
2022-12-23T12:32:51.871Z,13.40
2022-12-23T12:35:26.343Z,13.40
2022-12-23T12:38:00.716Z,13.40
2022-12-23T12:40:37.283Z,13.40
2022-12-23T12:43:17.175Z,13.40
2022-12-23T12:45:51.819Z,13.40
2022-12-23T12:48:33.277Z,13.50
2022-12-23T12:51:10.358Z,13.50
2022-12-23T12:53:42.769Z,13.50
2022-12-23T12:56:18.592Z,13.50
2022-12-23T12:58:47.519Z,13.50
2022-12-23T13:01:30.035Z,13.60
2022-12-23T13:04:31.749Z,13.60
2022-12-23T13:07:10.119Z,13.50
2022-12-23T13:09:51.182Z,13.50
2022-12-23T13:12:28.635Z,13.60
2022-12-23T13:15:03.942Z,13.60
2022-12-23T13:17:39.396Z,13.60
2022-12-23T13:20:15.998Z,13.60
2022-12-23T13:22:47.596Z,13.60
2022-12-23T13:25:19.536Z,13.60
2022-12-23T13:27:56.876Z,13.60
2022-12-23T13:30:28.261Z,13.50
2022-12-23T13:33:18.857Z,13.50
2022-12-23T13:36:09.217Z,13.50
2022-12-23T13:38:57.563Z,13.50
2022-12-23T13:41:32.547Z,13.50
2022-12-23T13:44:02.518Z,13.50
2022-12-23T13:46:41.174Z,13.60
2022-12-23T13:49:18.855Z,13.50
2022-12-23T13:51:53.722Z,13.60
2022-12-23T13:54:34.605Z,13.60
2022-12-23T13:57:10.774Z,13.60
2022-12-23T13:59:41.119Z,13.70
2022-12-23T14:02:48.713Z,13.70
2022-12-23T14:05:34.167Z,13.70
2022-12-23T14:08:05.865Z,13.70
2022-12-23T14:10:36.443Z,13.70
2022-12-23T14:13:08.619Z,13.70
2022-12-23T14:15:50.010Z,13.70
2022-12-23T14:18:32.760Z,13.70
2022-12-23T14:21:10.187Z,13.70
2022-12-23T14:23:50.938Z,13.70
2022-12-23T14:26:36.641Z,13.70
2022-12-23T14:29:24.284Z,13.70
2022-12-23T14:31:57.482Z,13.70
2022-12-23T14:34:32.273Z,13.70
2022-12-23T14:37:30.183Z,13.70
2022-12-23T14:39:59.482Z,13.70
2022-12-23T14:42:43.191Z,13.70
2022-12-23T14:45:30.372Z,13.70
2022-12-23T14:47:58.688Z,13.70
2022-12-23T14:50:42.319Z,13.70
2022-12-23T14:53:25.109Z,13.80
2022-12-23T14:56:11.835Z,13.80
2022-12-23T14:59:09.391Z,13.80
2022-12-23T15:01:40.891Z,13.90
2022-12-23T15:04:17.544Z,13.90
2022-12-23T15:06:48.452Z,13.90
2022-12-23T15:09:26.725Z,14.00
2022-12-23T15:11:57.254Z,14.00
2022-12-23T15:14:33.632Z,14.00
2022-12-23T15:17:16.220Z,13.90
2022-12-23T15:19:47.833Z,13.90
2022-12-23T15:22:22.719Z,13.90
2022-12-23T15:24:53.769Z,13.90
2022-12-23T15:27:27.769Z,13.90
2022-12-23T15:29:58.986Z,13.80
2022-12-23T15:32:29.308Z,13.90
2022-12-23T15:35:02.428Z,13.90
2022-12-23T15:37:32.605Z,13.90
2022-12-23T15:40:11.395Z,13.90
2022-12-23T15:42:47.677Z,13.90
2022-12-23T15:45:31.651Z,13.90
2022-12-23T15:48:00.085Z,13.90
2022-12-23T15:50:29.344Z,13.90
2022-12-23T15:53:08.815Z,13.90
2022-12-23T15:55:40.402Z,13.90
2022-12-23T15:58:09.207Z,13.90
2022-12-23T16:00:41.683Z,13.90
2022-12-23T16:03:26.244Z,13.90
2022-12-23T16:05:54.741Z,13.90
2022-12-23T16:08:29.754Z,14.00
2022-12-23T16:11:12.785Z,13.90
2022-12-23T16:13:47.237Z,14.00
2022-12-23T16:16:32.924Z,14.00
2022-12-23T16:19:01.756Z,14.00
2022-12-23T16:21:32.377Z,14.00
2022-12-23T16:24:01.952Z,14.10
2022-12-23T16:26:30.373Z,14.00
2022-12-23T16:29:02.015Z,14.00
2022-12-23T16:31:31.941Z,14.00
2022-12-23T16:34:01.450Z,13.90
2022-12-23T16:36:37.669Z,13.90
2022-12-23T16:39:20.110Z,13.90
2022-12-23T16:41:49.225Z,13.90
2022-12-23T16:44:18.104Z,13.80
2022-12-23T16:46:51.132Z,13.80
2022-12-23T16:49:21.557Z,13.80
2022-12-23T16:51:50.412Z,13.80
2022-12-23T16:54:22.453Z,13.80
2022-12-23T16:56:51.141Z,13.80
2022-12-23T16:59:21.085Z,13.70
2022-12-23T17:01:50.779Z,13.70
2022-12-23T17:04:21.384Z,13.60
2022-12-23T17:06:49.648Z,13.50
2022-12-23T17:09:17.921Z,13.40
2022-12-23T17:11:50.106Z,13.40
2022-12-23T17:14:20.218Z,13.40
2022-12-23T17:16:50.851Z,13.40
2022-12-23T17:19:27.152Z,13.40
2022-12-23T17:22:00.881Z,13.40
2022-12-23T17:24:29.470Z,13.40
2022-12-23T17:26:58.363Z,13.40
2022-12-23T17:29:26.702Z,13.40
2022-12-23T17:31:56.422Z,13.40
2022-12-23T17:34:25.626Z,13.40
2022-12-23T17:36:54.113Z,13.40
2022-12-23T17:39:23.193Z,13.40
2022-12-23T17:41:51.512Z,13.40
2022-12-23T17:44:20.257Z,13.30
2022-12-23T17:46:49.345Z,13.20
2022-12-23T17:49:18.944Z,13.20
2022-12-23T17:51:47.245Z,13.20
2022-12-23T17:54:25.958Z,13.10
2022-12-23T17:56:54.370Z,13.00
2022-12-23T17:59:22.873Z,13.00
2022-12-23T18:01:51.626Z,13.00
2022-12-23T18:04:22.552Z,12.90
2022-12-23T18:06:50.861Z,12.90
2022-12-23T18:09:21.285Z,12.90
2022-12-23T18:11:49.595Z,12.90
2022-12-23T18:14:27.853Z,12.80
2022-12-23T18:16:56.444Z,12.80
2022-12-23T18:19:26.359Z,12.80
2022-12-23T18:21:54.645Z,12.70
2022-12-23T18:24:22.883Z,12.70
2022-12-23T18:26:51.146Z,12.60
2022-12-23T18:29:19.443Z,12.50
2022-12-23T18:31:52.061Z,12.40
2022-12-23T18:34:21.522Z,12.40
2022-12-23T18:36:52.519Z,12.40
2022-12-23T18:39:21.263Z,12.40
2022-12-23T18:41:49.661Z,12.40
2022-12-23T18:44:19.637Z,12.50
2022-12-23T18:46:48.474Z,12.50
2022-12-23T18:49:16.885Z,12.60
2022-12-23T18:51:45.476Z,12.60
2022-12-23T18:54:17.403Z,12.70
2022-12-23T18:56:46.750Z,12.70
2022-12-23T18:59:21.355Z,12.70
2022-12-23T19:01:56.481Z,12.70
2022-12-23T19:04:25.023Z,12.70
2022-12-23T19:06:53.540Z,12.70
2022-12-23T19:09:25.133Z,12.70
2022-12-23T19:11:54.927Z,12.70
2022-12-23T19:14:23.495Z,12.70
2022-12-23T19:16:52.821Z,12.70
2022-12-23T19:19:21.559Z,12.80
2022-12-23T19:21:49.854Z,12.80
2022-12-23T19:24:18.086Z,12.80
2022-12-23T19:26:49.232Z,12.80
2022-12-23T19:29:18.156Z,12.70
2022-12-23T19:31:46.826Z,12.70
2022-12-23T19:34:16.118Z,12.60
2022-12-23T19:36:45.298Z,12.50
2022-12-23T19:39:16.973Z,12.60
2022-12-23T19:41:46.307Z,12.70
2022-12-23T19:44:16.394Z,12.80
2022-12-23T19:46:45.050Z,12.80
2022-12-23T19:49:19.468Z,13.00
2022-12-23T19:51:49.207Z,13.10
2022-12-23T19:54:18.366Z,13.10
2022-12-23T19:56:47.770Z,13.20
2022-12-23T19:59:17.877Z,13.20
2022-12-23T20:01:47.009Z,13.20
2022-12-23T20:04:15.919Z,13.20
2022-12-23T20:06:44.331Z,13.30
2022-12-23T20:09:14.557Z,13.30
2022-12-23T20:11:45.089Z,13.40
2022-12-23T20:14:15.560Z,13.40
2022-12-23T20:16:45.755Z,13.30
2022-12-23T20:19:14.263Z,13.40
2022-12-23T20:21:42.751Z,13.30
2022-12-23T20:24:11.128Z,13.20
2022-12-23T20:26:40.099Z,13.10
2022-12-23T20:29:08.503Z,13.20
2022-12-23T20:31:38.162Z,13.20
2022-12-23T20:34:09.922Z,13.20
2022-12-23T20:36:38.262Z,13.30
2022-12-23T20:39:07.214Z,13.20
2022-12-23T20:41:35.601Z,13.20
2022-12-23T20:46:52.262Z,13.00
2022-12-23T20:49:22.138Z,13.00
2022-12-23T20:51:51.346Z,13.10
2022-12-23T20:54:19.523Z,13.10
2022-12-23T20:56:48.217Z,13.20
2022-12-23T20:59:16.477Z,13.10
2022-12-23T21:01:44.885Z,13.10
2022-12-23T21:04:16.651Z,13.10
2022-12-23T21:06:46.471Z,13.10
2022-12-23T21:09:16.246Z,13.10
2022-12-23T21:11:46.401Z,13.10
2022-12-23T21:14:15.727Z,13.10
2022-12-23T21:16:44.393Z,12.90
2022-12-23T21:19:16.959Z,12.90
2022-12-23T21:21:47.684Z,12.90
2022-12-23T21:24:16.531Z,13.00
2022-12-23T21:26:49.023Z,13.10
2022-12-23T21:29:22.408Z,13.10
2022-12-23T21:31:50.710Z,13.20
2022-12-23T21:34:19.182Z,13.10
2022-12-23T21:36:49.178Z,13.10
2022-12-23T21:39:17.831Z,13.10
2022-12-23T21:41:46.259Z,13.20
2022-12-23T21:44:15.647Z,13.20
2022-12-23T21:46:43.933Z,13.20
2022-12-23T21:49:12.455Z,13.10
2022-12-23T21:51:41.822Z,13.20
2022-12-23T21:54:12.685Z,13.20
2022-12-23T21:56:42.069Z,13.20
2022-12-23T21:59:13.193Z,13.20
2022-12-23T22:01:42.470Z,13.20
2022-12-23T22:04:10.990Z,13.20
2022-12-23T22:06:43.504Z,13.20
2022-12-23T22:09:16.017Z,13.20
2022-12-23T22:11:44.572Z,13.20
2022-12-23T22:14:15.774Z,13.20
2022-12-23T22:16:44.241Z,13.20
2022-12-23T22:19:13.361Z,13.20
2022-12-23T22:21:42.703Z,13.10
2022-12-23T22:24:11.745Z,13.10
2022-12-23T22:26:42.125Z,13.00
2022-12-23T22:29:12.407Z,12.90
2022-12-23T22:31:43.037Z,12.80
2022-12-23T22:34:15.186Z,12.70
2022-12-23T22:36:44.311Z,12.60
2022-12-23T22:39:20.127Z,12.60
2022-12-23T22:41:51.183Z,12.50
2022-12-23T22:44:19.973Z,12.40
2022-12-23T22:46:48.454Z,12.30
2022-12-23T22:49:17.259Z,12.30
2022-12-23T22:51:45.606Z,12.30
2022-12-23T22:54:14.205Z,12.30
2022-12-23T22:56:42.593Z,12.40
2022-12-23T22:59:20.903Z,12.40
2022-12-23T23:01:49.849Z,12.40
2022-12-23T23:04:18.738Z,12.40
2022-12-23T23:06:47.202Z,12.50
2022-12-23T23:09:17.691Z,12.50
2022-12-23T23:11:46.190Z,12.50
2022-12-23T23:14:16.194Z,12.60
2022-12-23T23:16:44.509Z,12.60
2022-12-23T23:19:14.378Z,12.60
2022-12-23T23:21:42.601Z,12.70
2022-12-23T23:24:12.126Z,12.70
2022-12-23T23:26:40.498Z,12.70
2022-12-23T23:29:08.904Z,12.70
2022-12-23T23:31:43.275Z,12.80
2022-12-23T23:34:12.885Z,12.80
2022-12-23T23:36:41.244Z,12.80
2022-12-23T23:39:09.593Z,12.80
2022-12-23T23:41:37.861Z,12.80
2022-12-23T23:44:06.311Z,12.80
2022-12-23T23:46:34.832Z,12.70
2022-12-23T23:49:04.536Z,12.70
2022-12-23T23:51:32.736Z,12.70
2022-12-23T23:54:01.055Z,12.60
2022-12-23T23:56:35.816Z,12.60
2022-12-23T23:59:06.299Z,12.50
